Time;durP1;ratioP1;P1;durP2;ratioP2;P2;SDS_P1;SDS_P2;PMS_P1;PMS_P2;Temp;Humidity;BMP_temperature;BMP_pressure;BME280_temperature;BME280_humidity;BME280_pressure;Samples;Min_cycle;Max_cycle;Signal;HPM_P1;HPM_P2
2022/01/08 00:00:32;;;;;;;416.15;303.80;;;;;;;23.15;40.63;101837.50;5104328;28;20028;-43
2022/01/08 00:03:00;;;;;;;432.92;307.65;;;;;;;23.13;41.12;101839.19;5116161;27;20127;-43
2022/01/08 00:05:31;;;;;;;415.85;301.80;;;;;;;23.17;40.86;101841.94;5124236;27;20578;-44
2022/01/08 00:08:00;;;;;;;413.38;298.58;;;;;;;23.14;41.00;101839.25;5124489;27;20026;-44
2022/01/08 00:10:28;;;;;;;424.88;310.45;;;;;;;23.16;40.71;101828.81;5124490;27;20031;-43
2022/01/08 00:12:56;;;;;;;438.25;317.60;;;;;;;23.16;40.58;101829.72;5124575;27;20038;-43
2022/01/08 00:15:25;;;;;;;422.15;308.98;;;;;;;23.12;41.01;101827.84;5124162;27;20027;-43
2022/01/08 00:17:53;;;;;;;415.23;300.65;;;;;;;23.15;41.05;101813.94;5124452;27;20027;-48
2022/01/08 00:20:22;;;;;;;432.30;314.58;;;;;;;23.09;40.79;101817.28;5124773;28;20100;-44
2022/01/08 00:22:52;;;;;;;433.70;310.92;;;;;;;23.12;41.12;101812.13;5124473;28;20028;-51
2022/01/08 00:25:21;;;;;;;429.35;309.73;;;;;;;23.09;41.07;101814.66;5124487;28;20373;-43
2022/01/08 00:27:49;;;;;;;427.83;311.95;;;;;;;23.15;41.01;101816.56;5124079;28;20031;-43
2022/01/08 00:30:18;;;;;;;423.90;308.63;;;;;;;23.14;41.10;101815.69;5124116;28;20472;-49
2022/01/08 00:32:46;;;;;;;428.77;308.88;;;;;;;23.10;41.24;101810.28;5106162;28;20067;-43
2022/01/08 00:35:14;;;;;;;435.13;313.45;;;;;;;23.09;41.00;101809.41;5124310;28;20254;-44
2022/01/08 00:37:42;;;;;;;433.42;314.25;;;;;;;23.08;41.24;101801.53;5123655;28;20109;-45
2022/01/08 00:40:12;;;;;;;434.17;316.48;;;;;;;23.08;41.35;101806.75;5124235;28;20169;-43
2022/01/08 00:42:41;;;;;;;432.80;312.17;;;;;;;23.11;40.89;101812.97;5123713;28;20444;-44
2022/01/08 00:45:10;;;;;;;426.27;309.35;;;;;;;23.05;41.05;101803.22;5123632;28;20019;-44
2022/01/08 00:47:38;;;;;;;430.83;314.30;;;;;;;23.11;41.28;101812.06;5123316;28;20038;-43
2022/01/08 00:50:07;;;;;;;437.65;314.40;;;;;;;23.08;41.19;101809.38;5124261;28;20128;-44
2022/01/08 00:52:36;;;;;;;426.40;311.55;;;;;;;23.07;41.31;101811.09;5123702;28;20031;-44
2022/01/08 00:55:05;;;;;;;434.15;317.88;;;;;;;23.12;41.00;101801.66;5123849;28;20054;-44
2022/01/08 00:57:34;;;;;;;418.23;312.27;;;;;;;23.10;41.25;101802.44;5109508;27;20032;-44
2022/01/08 01:00:02;;;;;;;426.13;311.55;;;;;;;23.13;41.09;101799.91;5127967;27;20027;-43
2022/01/08 01:02:31;;;;;;;424.30;311.25;;;;;;;23.15;40.99;101806.09;5127819;27;20054;-43
2022/01/08 01:05:00;;;;;;;435.42;313.85;;;;;;;23.12;41.15;101793.81;5127399;27;20486;-44
2022/01/08 01:07:29;;;;;;;425.77;311.73;;;;;;;23.09;41.21;101793.72;5127956;27;20076;-44
2022/01/08 01:09:57;;;;;;;424.98;313.60;;;;;;;23.11;41.18;101796.38;5127987;27;20031;-43
2022/01/08 01:12:26;;;;;;;430.27;319.17;;;;;;;23.08;41.17;101785.84;5127863;27;20079;-43
2022/01/08 01:14:54;;;;;;;436.85;320.35;;;;;;;23.06;41.37;101783.16;5128020;27;20023;-47
2022/01/08 01:17:22;;;;;;;441.52;318.73;;;;;;;23.09;41.27;101780.63;5127411;27;20056;-44
2022/01/08 01:19:51;;;;;;;425.30;312.27;;;;;;;23.08;40.87;101772.75;5127383;27;20035;-44
2022/01/08 01:22:21;;;;;;;432.27;311.50;;;;;;;23.08;41.07;101775.38;5127439;27;20106;-45
2022/01/08 01:24:50;;;;;;;428.52;313.00;;;;;;;23.04;41.41;101776.97;5126905;27;20027;-43
2022/01/08 01:30:14;;;;;;;443.42;313.30;;;;;;;23.05;41.00;101765.66;5127240;27;20472;-44
2022/01/08 01:41:18;;;;;;;445.02;325.67;;;;;;;23.12;40.98;101759.78;5116164;27;20124;-45
2022/01/08 01:47:15;;;;;;;434.63;318.52;;;;;;;23.10;41.17;101748.38;5125779;27;20118;-44
2022/01/08 01:49:24;;;;;;;431.52;321.33;;;;;;;23.07;40.90;101737.81;5118637;27;20427;-44
2022/01/08 01:51:53;;;;;;;431.85;319.98;;;;;;;23.05;41.45;101745.63;5127126;27;20034;-45
2022/01/08 01:54:21;;;;;;;442.92;318.85;;;;;;;23.05;41.34;101729.03;5127009;27;20091;-41
2022/01/08 01:56:50;;;;;;;425.10;311.23;;;;;;;23.04;41.45;101743.84;5126852;27;20464;-43
2022/01/08 01:59:18;;;;;;;431.42;313.45;;;;;;;23.09;41.05;101744.00;5108782;27;20122;-43
2022/01/08 02:01:47;;;;;;;426.30;312.15;;;;;;;23.05;41.09;101739.50;5126838;27;20027;-42
2022/01/08 02:04:15;;;;;;;419.40;309.77;;;;;;;23.01;41.42;101745.47;5127215;27;20046;-46
2022/01/08 02:06:44;;;;;;;424.00;309.23;;;;;;;23.03;41.11;101741.19;5126882;27;20031;-42
2022/01/08 02:09:12;;;;;;;424.92;308.98;;;;;;;23.04;41.35;101742.97;5125943;27;20033;-43
2022/01/08 02:12:02;;;;;;;433.10;315.20;;;;;;;23.00;41.14;101741.13;5126574;27;20110;-43
2022/01/08 02:14:33;;;;;;;424.77;313.30;;;;;;;22.95;41.38;101748.81;5126052;27;20027;-42
2022/01/08 02:17:02;;;;;;;426.23;315.00;;;;;;;23.01;41.31;101743.75;5126779;27;20030;-43
2022/01/08 02:19:31;;;;;;;439.33;326.60;;;;;;;23.02;41.43;101740.31;5108386;27;20027;-43
2022/01/08 02:22:01;;;;;;;431.83;317.65;;;;;;;23.03;41.52;101742.09;5126263;27;20035;-43
2022/01/08 02:24:31;;;;;;;438.13;319.50;;;;;;;22.96;41.56;101729.66;5126021;27;20108;-43
2022/01/08 02:27:00;;;;;;;431.17;316.80;;;;;;;22.97;41.71;101738.41;5126289;27;20031;-43
2022/01/08 02:29:29;;;;;;;437.67;326.08;;;;;;;23.00;41.65;101739.38;5126175;27;20035;-43
2022/01/08 02:32:09;;;;;;;440.35;317.73;;;;;;;23.01;41.55;101746.38;5126275;27;20027;-42
2022/01/08 02:34:38;;;;;;;437.80;321.17;;;;;;;23.02;41.48;101748.16;5126153;27;20035;-42
2022/01/08 02:37:09;;;;;;;437.20;321.50;;;;;;;23.01;41.12;101743.75;5126281;27;20027;-42
2022/01/08 02:39:40;;;;;;;443.88;322.90;;;;;;;23.04;41.57;101743.84;5126310;27;20130;-42
2022/01/08 02:42:11;;;;;;;428.58;320.65;;;;;;;23.03;41.08;101738.56;5126329;27;20030;-42
2022/01/08 02:44:41;;;;;;;445.17;321.20;;;;;;;23.05;41.42;101742.13;5125958;27;20031;-42
2022/01/08 02:47:10;;;;;;;433.80;318.05;;;;;;;22.99;41.34;101750.69;5125651;27;20388;-43
2022/01/08 02:49:38;;;;;;;436.13;313.67;;;;;;;22.97;41.57;101748.88;5125433;27;20027;-43
2022/01/08 02:52:07;;;;;;;425.65;313.65;;;;;;;22.88;41.32;101747.75;5125952;27;20031;-43
2022/01/08 02:54:36;;;;;;;423.15;309.73;;;;;;;22.92;41.56;101756.56;5126071;27;20027;-46
2022/01/08 02:57:05;;;;;;;444.08;323.52;;;;;;;23.02;41.51;101750.78;5125761;27;20094;-42
2022/01/08 02:59:35;;;;;;;437.38;321.38;;;;;;;23.00;41.48;101744.59;5125542;27;20019;-46
2022/01/08 03:02:03;;;;;;;427.88;314.95;;;;;;;23.01;41.37;101735.00;5106849;27;20051;-42
2022/01/08 03:04:32;;;;;;;438.63;324.70;;;;;;;23.02;41.32;101744.63;5125572;27;20099;-43
2022/01/08 03:07:01;;;;;;;434.08;316.48;;;;;;;22.99;41.29;101742.81;5091075;27;20083;-42
2022/01/08 03:09:30;;;;;;;425.98;317.75;;;;;;;22.97;41.48;101741.03;5125437;27;20079;-43
2022/01/08 03:11:58;;;;;;;439.63;325.85;;;;;;;23.03;41.15;101746.41;5106562;27;20118;-43
2022/01/08 03:14:27;;;;;;;442.92;323.83;;;;;;;22.98;41.79;101735.81;5124758;27;20023;-43
2022/01/08 03:16:55;;;;;;;431.20;315.88;;;;;;;22.97;41.49;101727.94;5125072;27;20028;-43
2022/01/08 03:19:24;;;;;;;436.83;322.20;;;;;;;22.98;41.58;101719.25;5124334;27;20023;-43
2022/01/08 03:21:54;;;;;;;421.17;312.50;;;;;;;22.95;41.42;101721.75;5125166;27;20091;-43
2022/01/08 03:24:28;;;;;;;443.58;322.70;;;;;;;22.95;41.35;101708.69;5125573;27;20038;-43
2022/01/08 03:26:58;;;;;;;444.52;325.30;;;;;;;23.00;41.31;101701.88;5125184;27;20027;-42
2022/01/08 03:29:27;;;;;;;427.15;318.15;;;;;;;22.97;41.45;101699.16;5124778;27;20486;-42
2022/01/08 03:31:56;;;;;;;440.10;324.05;;;;;;;22.97;41.51;101699.16;5124989;27;20034;-43
2022/01/08 03:34:25;;;;;;;445.73;329.20;;;;;;;22.90;41.70;101685.88;5125440;27;20023;-44
2022/01/08 03:36:53;;;;;;;435.00;324.55;;;;;;;22.95;41.41;101687.75;5106697;27;20453;-43
2022/01/08 03:39:22;;;;;;;442.23;323.08;;;;;;;22.88;41.65;101690.19;5125023;27;20035;-43
2022/01/08 03:41:49;;;;;;;439.10;324.65;;;;;;;22.91;41.74;101695.50;5124721;27;20539;-44
2022/01/08 03:44:18;;;;;;;435.02;321.67;;;;;;;22.88;41.71;101698.03;5124453;27;20047;-43
2022/01/08 03:46:46;;;;;;;444.90;327.30;;;;;;;22.92;41.52;101686.81;5125173;27;20070;-43
2022/01/08 03:49:24;;;;;;;435.60;326.75;;;;;;;22.94;41.85;101686.84;5124700;27;20099;-42
2022/01/08 03:51:53;;;;;;;444.90;330.10;;;;;;;22.95;41.52;101693.00;5124870;27;20027;-42
2022/01/08 03:54:22;;;;;;;434.20;322.88;;;;;;;22.97;41.32;101686.06;5124955;27;20064;-42
2022/01/08 03:56:51;;;;;;;435.77;325.65;;;;;;;22.89;41.45;101684.09;5124790;27;20030;-42
2022/01/08 03:59:19;;;;;;;440.08;324.55;;;;;;;22.83;41.86;101665.63;5124496;27;20023;-43
2022/01/08 04:01:47;;;;;;;438.50;326.30;;;;;;;22.94;41.58;101673.75;5124529;27;20023;-45
2022/01/08 04:04:15;;;;;;;440.08;325.65;;;;;;;22.94;41.73;101668.53;5124369;27;20392;-48
2022/01/08 04:06:42;;;;;;;429.75;319.00;;;;;;;22.90;41.46;101667.56;5124313;27;20037;-43
2022/01/08 04:09:11;;;;;;;435.90;318.25;;;;;;;22.87;41.50;101661.38;5124297;27;20110;-43
2022/01/08 04:11:39;;;;;;;433.50;319.55;;;;;;;22.86;41.87;101657.84;5124133;27;20035;-43
2022/01/08 04:14:08;;;;;;;420.85;317.90;;;;;;;22.93;41.42;101661.53;5124427;27;20097;-42
2022/01/08 04:16:40;;;;;;;430.10;320.10;;;;;;;22.96;41.60;101656.38;5123775;27;20106;-42
2022/01/08 04:19:09;;;;;;;416.10;302.88;;;;;;;22.90;41.59;101651.88;5124177;28;20076;-46
2022/01/08 04:21:59;;;;;;;;;;;;;;;;;;;;;
2022/01/08 04:24:07;;;;;;;426.60;305.73;;;;;;;22.95;41.62;101635.44;5124577;28;20487;-43
2022/01/08 04:26:36;;;;;;;424.38;306.92;;;;;;;22.93;41.58;101635.34;5124675;28;20027;-43
2022/01/08 04:29:06;;;;;;;420.35;304.40;;;;;;;22.86;41.69;101636.91;5124491;28;20031;-43
2022/01/08 04:31:34;;;;;;;413.90;304.23;;;;;;;22.80;41.65;101628.91;5126461;27;20031;-45
2022/01/08 04:34:03;;;;;;;423.17;307.30;;;;;;;22.84;41.83;101625.53;5128632;27;20031;-43
2022/01/08 04:36:31;;;;;;;417.85;303.85;;;;;;;22.77;41.52;101611.38;5128444;27;20027;-44
2022/01/08 04:39:00;;;;;;;407.95;297.17;;;;;;;22.79;41.92;101614.06;5128534;27;20023;-43
2022/01/08 04:41:28;;;;;;;420.65;308.92;;;;;;;22.84;41.59;101622.03;5128437;27;20176;-42
2022/01/08 04:43:57;;;;;;;428.52;305.35;;;;;;;22.86;41.40;101620.34;5128677;27;20490;-42
2022/01/08 04:46:26;;;;;;;423.85;312.10;;;;;;;22.84;41.61;101625.53;5128504;27;20489;-42
2022/01/08 04:48:54;;;;;;;421.70;305.52;;;;;;;22.89;41.61;101616.09;5128343;27;20102;-42
2022/01/08 04:51:23;;;;;;;417.85;306.65;;;;;;;22.87;41.70;101612.53;5128232;27;20421;-43
2022/01/08 04:53:52;;;;;;;417.60;306.90;;;;;;;22.78;41.67;101607.06;5128059;27;20028;-42
2022/01/08 04:56:20;;;;;;;410.83;302.83;;;;;;;22.85;41.80;101608.97;5128065;27;20431;-43
2022/01/08 04:58:49;;;;;;;418.10;307.95;;;;;;;22.94;41.39;101604.88;5128126;27;20023;-42
2022/01/08 05:01:19;;;;;;;418.58;303.15;;;;;;;22.85;41.69;101603.75;5128055;27;20030;-43
2022/01/08 05:03:48;;;;;;;417.38;308.80;;;;;;;22.79;41.42;101590.53;5128025;27;20108;-48
2022/01/08 05:06:16;;;;;;;419.80;308.40;;;;;;;22.83;41.67;101596.72;5128174;27;20059;-45
2022/01/08 05:08:45;;;;;;;430.35;309.00;;;;;;;22.80;42.00;101591.41;5128072;27;20106;-46
2022/01/08 05:11:13;;;;;;;427.02;309.42;;;;;;;22.77;41.74;101585.22;5127408;27;20047;-45
2022/01/08 05:13:44;;;;;;;418.40;305.83;;;;;;;22.76;41.51;101577.34;5127763;27;20037;-48
2022/01/08 05:16:12;;;;;;;424.00;306.00;;;;;;;22.80;41.77;101576.59;5127513;27;20053;-44
2022/01/08 05:18:41;;;;;;;429.02;310.00;;;;;;;22.77;41.54;101582.63;5127495;27;20027;-42
2022/01/08 05:21:33;;;;;;;413.58;298.40;;;;;;;22.74;41.46;101571.19;5127920;27;20467;-44
2022/01/08 05:23:57;;;;;;;415.27;302.08;;;;;;;22.76;41.84;101577.34;5126845;27;20105;-43
2022/01/08 05:26:26;;;;;;;413.08;294.20;;;;;;;22.65;41.85;101571.81;5127631;27;20062;-42
2022/01/08 05:28:55;;;;;;;415.33;299.52;;;;;;;22.68;41.72;101569.28;5127802;27;20034;-43
2022/01/08 05:31:24;;;;;;;406.30;289.50;;;;;;;22.65;41.75;101569.19;5127708;27;20117;-43
2022/01/08 05:33:53;;;;;;;405.38;288.85;;;;;;;22.66;41.73;101555.28;5127491;27;20031;-42
2022/01/08 05:36:21;;;;;;;400.08;287.75;;;;;;;22.60;42.04;101558.63;5127336;27;20129;-42
2022/01/08 05:38:50;;;;;;;395.67;282.45;;;;;;;22.60;42.12;101552.47;5127513;27;20019;-43
2022/01/08 05:41:18;;;;;;;394.63;279.52;;;;;;;22.67;41.84;101553.56;5126960;27;20042;-43
2022/01/08 05:43:48;;;;;;;409.88;291.13;;;;;;;22.67;41.52;101548.34;5125026;27;20426;-43
2022/01/08 05:46:16;;;;;;;404.85;285.25;;;;;;;22.46;41.92;101512.91;5126699;27;20116;-42
2022/01/08 05:48:45;;;;;;;403.38;289.42;;;;;;;22.70;41.53;101543.16;5126610;27;20070;-42
2022/01/08 05:51:13;;;;;;;403.85;290.33;;;;;;;22.68;41.71;101544.84;5127210;27;20384;-42
2022/01/08 05:53:42;;;;;;;397.23;284.58;;;;;;;22.71;41.89;101534.47;5127099;27;20027;-44
2022/01/08 05:56:10;;;;;;;377.30;269.02;;;;;;;22.60;41.60;101535.09;5126780;27;20023;-42
2022/01/08 05:58:39;;;;;;;391.90;278.92;;;;;;;22.60;41.75;101527.25;5126531;27;20043;-45
2022/01/08 06:01:08;;;;;;;392.48;274.35;;;;;;;22.59;41.86;101528.09;5126865;27;20027;-42
2022/01/08 06:03:36;;;;;;;397.52;279.33;;;;;;;22.52;42.05;101506.94;5126929;27;20043;-44
2022/01/08 06:06:05;;;;;;;385.20;272.98;;;;;;;22.56;41.61;101499.22;5127014;27;20023;-43
2022/01/08 06:08:33;;;;;;;388.83;275.20;;;;;;;22.49;42.11;101501.63;5108681;27;20083;-43
2022/01/08 06:11:02;;;;;;;382.50;268.60;;;;;;;22.54;41.79;101502.66;5126542;27;20487;-45
2022/01/08 06:13:30;;;;;;;386.13;270.20;;;;;;;22.55;42.09;101507.03;5127003;27;20042;-43
2022/01/08 06:15:59;;;;;;;378.40;268.80;;;;;;;22.44;41.91;101481.47;5126733;27;20042;-43
2022/01/08 06:18:27;;;;;;;389.70;273.88;;;;;;;22.54;41.89;101487.84;5126890;27;20027;-42
2022/01/08 06:20:59;;;;;;;376.65;262.40;;;;;;;22.54;41.79;101495.69;5126226;27;20468;-44
2022/01/08 06:23:28;;;;;;;388.20;269.20;;;;;;;22.51;41.68;101490.34;5126436;27;20035;-42
2022/01/08 06:25:57;;;;;;;377.88;266.25;;;;;;;22.46;41.76;101486.75;5126484;27;20026;-43
2022/01/08 06:28:26;;;;;;;384.45;267.02;;;;;;;22.46;41.90;101487.63;5126250;27;20053;-42
2022/01/08 06:30:55;;;;;;;384.42;265.63;;;;;;;22.47;41.65;101480.69;5126042;27;20030;-43
2022/01/08 06:33:23;;;;;;;370.60;261.13;;;;;;;22.37;42.07;101469.06;5125922;27;20035;-43
2022/01/08 06:35:52;;;;;;;363.38;253.38;;;;;;;22.02;41.79;101424.50;5125795;27;20508;-42
2022/01/08 06:38:20;;;;;;;351.35;251.43;;;;;;;22.34;41.88;101463.72;5125601;27;20076;-43
2022/01/08 06:40:48;;;;;;;355.10;244.90;;;;;;;22.35;42.11;101470.72;5126125;27;20105;-45
2022/01/08 06:43:17;;;;;;;357.55;249.48;;;;;;;22.35;41.85;101454.16;5125458;27;20031;-44
2022/01/08 06:45:45;;;;;;;352.80;241.40;;;;;;;22.35;41.98;101457.66;5107685;27;20074;-43
2022/01/08 06:48:13;;;;;;;335.13;238.68;;;;;;;22.39;41.68;101442.94;5126214;27;20476;-43
2022/01/08 06:50:42;;;;;;;359.92;243.35;;;;;;;22.44;42.03;101447.47;5108224;27;20391;-47
2022/01/08 06:53:10;;;;;;;346.25;243.73;;;;;;;22.50;41.37;101438.94;5126105;27;20412;-51
2022/01/08 06:55:38;;;;;;;348.02;238.90;;;;;;;22.49;41.73;101431.94;5125521;27;20039;-44
2022/01/08 06:58:07;;;;;;;354.70;244.50;;;;;;;22.49;41.49;101439.78;5126210;27;20031;-43
2022/01/08 07:00:35;;;;;;;346.80;239.88;;;;;;;22.56;41.57;101427.75;5126126;27;20084;-43
2022/01/08 07:03:09;;;;;;;345.23;241.95;;;;;;;22.50;41.75;101428.50;5125259;27;20364;-44
2022/01/08 07:05:39;;;;;;;337.05;232.20;;;;;;;22.51;41.24;101427.59;5125945;27;20037;-44
2022/01/08 07:08:10;;;;;;;344.85;236.98;;;;;;;22.50;41.65;101419.75;5125673;27;20072;-46
2022/01/08 07:10:39;;;;;;;338.75;225.48;;;;;;;22.48;41.89;101417.09;5125639;27;20028;-42
2022/01/08 07:13:07;;;;;;;320.23;222.73;;;;;;;22.36;41.88;101415.00;5125635;27;20034;-43
2022/01/08 07:15:35;;;;;;;334.17;227.60;;;;;;;22.36;41.57;101401.03;5107089;27;20027;-43
2022/01/08 07:18:03;;;;;;;315.80;210.98;;;;;;;22.37;41.69;101402.81;5124738;27;20037;-45
2022/01/08 07:20:30;;;;;;;295.10;199.57;;;;;;;22.31;41.72;101401.81;5107027;27;20536;-45
2022/01/08 07:22:59;;;;;;;291.67;197.05;;;;;;;22.26;41.64;101390.34;5125543;27;20074;-43
2022/01/08 07:25:28;;;;;;;258.10;174.57;;;;;;;22.30;41.37;101400.03;5124881;27;20027;-45
2022/01/08 07:27:56;;;;;;;273.23;184.68;;;;;;;22.26;41.50;101389.44;5124876;27;20083;-43
2022/01/08 07:30:24;;;;;;;269.27;176.90;;;;;;;22.22;41.62;101383.25;5124918;27;20078;-47
2022/01/08 07:32:53;;;;;;;261.40;173.20;;;;;;;22.23;41.31;101387.63;5125102;27;20039;-47
2022/01/08 07:35:22;;;;;;;257.42;176.25;;;;;;;22.27;41.26;101378.13;5124577;27;20028;-43
2022/01/08 07:37:51;;;;;;;267.75;182.57;;;;;;;22.34;41.44;101379.22;5125186;27;20023;-43
2022/01/08 07:40:21;;;;;;;273.45;180.60;;;;;;;22.20;41.15;101342.25;5125062;27;20035;-44
2022/01/08 07:42:50;;;;;;;282.27;183.52;;;;;;;22.43;41.08;101366.41;5125286;27;20035;-48
2022/01/08 07:45:18;;;;;;;276.73;189.85;;;;;;;22.38;41.21;101366.25;5124930;27;20129;-42
2022/01/08 07:47:48;;;;;;;297.20;193.80;;;;;;;22.41;41.35;101355.91;5124810;27;20064;-42
2022/01/08 07:50:17;;;;;;;279.42;182.90;;;;;;;22.27;41.73;101352.00;5124959;27;20037;-43
2022/01/08 07:52:45;;;;;;;295.08;194.68;;;;;;;22.32;41.87;101358.25;5124654;27;20857;-43
2022/01/08 07:55:14;;;;;;;288.38;195.55;;;;;;;22.30;41.87;101359.94;5124701;27;20063;-44
2022/01/08 07:57:42;;;;;;;296.08;198.85;;;;;;;22.37;41.64;101345.28;5125059;27;20065;-42
2022/01/08 08:00:11;;;;;;;297.98;201.63;;;;;;;22.43;41.52;101361.19;5124225;27;20064;-43
2022/01/08 08:02:40;;;;;;;300.48;206.82;;;;;;;22.43;41.37;101358.56;5124600;27;20079;-42
2022/01/08 08:05:09;;;;;;;304.45;204.75;;;;;;;22.44;41.64;101342.03;5124369;27;20400;-43
2022/01/08 08:07:38;;;;;;;315.75;215.23;;;;;;;22.52;41.30;101342.22;5123536;27;20047;-45
2022/01/08 08:10:10;;;;;;;311.88;207.85;;;;;;;22.48;41.41;101336.06;5124156;27;20033;-45
2022/01/08 08:12:41;;;;;;;317.77;217.77;;;;;;;22.52;41.25;101334.38;5123447;27;20049;-43
2022/01/08 08:15:11;;;;;;;333.63;221.65;;;;;;;22.45;41.80;101328.13;5105591;27;20035;-49
2022/01/08 08:17:40;;;;;;;331.95;226.30;;;;;;;22.44;41.84;101328.97;5124585;27;20057;-45
2022/01/08 08:20:08;;;;;;;304.35;207.23;;;;;;;22.37;41.46;101313.94;5124484;27;20039;-44
2022/01/08 08:22:37;;;;;;;325.17;218.93;;;;;;;22.32;41.86;101316.44;5124649;28;20037;-42
2022/01/08 08:25:06;;;;;;;311.98;211.75;;;;;;;22.36;41.42;101306.94;5124228;28;20034;-43
2022/01/08 08:27:34;;;;;;;300.40;208.63;;;;;;;22.31;41.58;101301.59;5124360;28;20031;-42
2022/01/08 08:30:03;;;;;;;307.30;200.55;;;;;;;22.30;41.42;101308.56;5124122;28;20069;-44
2022/01/08 08:32:32;;;;;;;293.88;198.75;;;;;;;22.37;41.46;101300.84;5124382;28;20049;-42
2022/01/08 08:35:02;;;;;;;308.92;205.45;;;;;;;22.35;41.69;101286.88;5124294;28;20027;-42
2022/01/08 08:37:41;;;;;;;290.35;196.90;;;;;;;22.31;41.62;101272.84;5089146;28;20492;-42
2022/01/08 08:40:11;;;;;;;273.42;192.82;;;;;;;22.36;41.51;101266.00;5124437;28;20027;-42
2022/01/08 08:42:42;;;;;;;278.63;183.40;;;;;;;22.29;41.33;101262.38;5124313;28;20031;-42
2022/01/08 08:45:11;;;;;;;284.80;189.20;;;;;;;22.29;41.39;101251.00;5124195;28;20042;-43
2022/01/08 08:47:40;;;;;;;271.52;185.20;;;;;;;22.20;41.39;101249.06;5124395;28;20050;-42
2022/01/08 08:50:11;;;;;;;292.45;192.00;;;;;;;22.23;41.25;101245.66;5123775;28;20106;-43
2022/01/08 08:52:40;;;;;;;271.95;181.30;;;;;;;22.25;41.59;101237.00;5123861;28;20059;-43
2022/01/08 08:55:10;;;;;;;277.75;185.20;;;;;;;22.23;41.67;101238.69;5123891;28;20067;-43
2022/01/08 08:57:38;;;;;;;275.50;181.90;;;;;;;22.27;41.34;101231.78;5124015;28;20047;-43
2022/01/08 09:00:07;;;;;;;278.02;186.40;;;;;;;22.23;41.45;101233.44;5105462;28;20072;-43
2022/01/08 09:02:36;;;;;;;279.30;187.13;;;;;;;22.23;41.58;101220.38;5123805;28;20407;-44
2022/01/08 09:05:06;;;;;;;285.65;191.38;;;;;;;22.23;41.45;101219.53;5124117;28;20817;-43
2022/01/08 09:07:35;;;;;;;289.05;188.18;;;;;;;22.22;41.58;101210.78;5123935;28;20023;-43
2022/01/08 09:10:05;;;;;;;298.60;195.60;;;;;;;22.22;41.65;101204.69;5123756;28;20372;-43
2022/01/08 09:12:34;;;;;;;299.40;203.73;;;;;;;22.27;41.67;101200.44;5123847;28;20063;-43
2022/01/08 09:15:05;;;;;;;288.92;199.75;;;;;;;22.27;41.55;101190.88;5123821;28;20499;-43
2022/01/08 09:17:34;;;;;;;297.33;197.13;;;;;;;22.06;41.82;101157.28;5124995;27;20091;-43
2022/01/08 09:20:04;;;;;;;288.17;199.45;;;;;;;22.26;41.62;101183.88;5127875;27;20026;-43
2022/01/08 09:22:33;;;;;;;293.58;195.68;;;;;;;22.25;41.42;101165.56;5128067;27;20023;-43
2022/01/08 09:25:01;;;;;;;296.77;200.52;;;;;;;22.27;41.44;101156.00;5127216;27;20034;-43
2022/01/08 09:27:30;;;;;;;295.23;192.60;;;;;;;22.24;41.63;101158.56;5127020;27;20136;-43
2022/01/08 09:29:58;;;;;;;289.23;193.68;;;;;;;22.14;41.74;101153.09;5126798;27;20105;-42
2022/01/08 09:32:27;;;;;;;301.83;199.02;;;;;;;22.16;41.86;101151.41;5126905;27;20468;-42
2022/01/08 09:34:56;;;;;;;299.45;201.57;;;;;;;22.17;41.65;101147.09;5108963;27;20496;-42
2022/01/08 09:37:25;;;;;;;292.08;198.60;;;;;;;22.15;41.67;101149.66;5126807;27;20569;-43
2022/01/08 09:39:54;;;;;;;299.10;202.07;;;;;;;22.19;41.66;101142.75;5108895;27;20038;-42
2022/01/08 09:45:45;;;;;;;288.10;198.25;;;;;;;22.19;42.09;101124.47;5127417;27;20046;-42
2022/01/08 09:48:13;;;;;;;297.67;202.23;;;;;;;22.19;41.87;101127.06;5126887;27;20066;-45
2022/01/08 09:50:43;;;;;;;300.45;201.15;;;;;;;22.16;41.76;101114.84;5127225;27;20091;-43
2022/01/08 09:53:10;;;;;;;286.00;190.48;;;;;;;22.22;41.55;101102.78;5127226;27;20031;-43
2022/01/08 09:55:39;;;;;;;290.52;195.07;;;;;;;22.20;41.48;101100.09;5127431;27;20491;-43
2022/01/08 09:58:08;;;;;;;292.30;192.80;;;;;;;22.18;41.83;101101.78;5109275;27;20030;-44
2022/01/08 10:00:36;;;;;;;271.25;186.45;;;;;;;22.20;41.85;101089.66;5126867;27;20030;-43
2022/01/08 10:03:17;;;;;;;284.45;192.25;;;;;;;22.16;42.06;101080.00;5126374;27;20053;-43
2022/01/08 10:05:49;;;;;;;290.98;187.73;;;;;;;22.15;42.12;101073.88;5126702;27;20059;-43
2022/01/08 10:08:24;;;;;;;290.15;192.75;;;;;;;22.16;41.71;101062.56;5108674;27;20023;-42
2022/01/08 10:11:07;;;;;;;286.67;190.48;;;;;;;22.23;41.73;101063.59;5126552;27;20083;-42
2022/01/08 10:13:39;;;;;;;287.55;191.30;;;;;;;22.13;41.79;101049.44;5108617;27;20027;-44
2022/01/08 10:19:04;;;;;;;274.13;185.77;;;;;;;22.15;42.05;101031.22;5115477;27;20066;-43
2022/01/08 10:25:13;;;;;;;301.00;199.05;;;;;;;22.18;41.84;101033.00;5125456;27;20046;-43
2022/01/08 10:27:42;;;;;;;284.20;190.25;;;;;;;22.18;41.91;101030.38;5126324;27;20035;-42
2022/01/08 10:30:26;;;;;;;295.42;200.23;;;;;;;22.20;42.04;101008.66;5126122;27;20034;-42
2022/01/08 10:33:04;;;;;;;279.02;188.93;;;;;;;22.23;42.03;100998.25;5108181;27;20031;-42
2022/01/08 10:35:52;;;;;;;296.23;194.35;;;;;;;22.14;42.07;101000.69;5126544;27;20044;-42
2022/01/08 10:38:20;;;;;;;292.08;192.82;;;;;;;22.13;42.23;100998.94;5126127;27;20030;-43
2022/01/08 10:40:49;;;;;;;283.02;191.05;;;;;;;22.13;42.34;100993.72;5126147;27;20128;-41
2022/01/08 10:43:29;;;;;;;289.17;193.82;;;;;;;22.15;42.21;100977.19;5106709;27;20027;-43
2022/01/08 10:46:08;;;;;;;282.52;186.82;;;;;;;22.08;42.19;100971.81;5125398;27;20027;-45
2022/01/08 10:48:37;;;;;;;277.23;180.13;;;;;;;22.13;42.23;100960.59;5126382;27;20091;-44
2022/01/08 10:51:17;;;;;;;276.48;172.57;;;;;;;22.12;42.08;100948.41;5126062;27;20035;-42
2022/01/08 10:54:05;;;;;;;267.52;171.35;;;;;;;22.15;42.22;100937.16;5125402;27;20083;-42
2022/01/08 10:56:42;;;;;;;259.85;174.85;;;;;;;22.13;42.01;100917.94;5126207;27;20073;-43
2022/01/08 10:59:12;;;;;;;260.75;169.68;;;;;;;22.14;41.78;100904.91;5125051;27;20023;-44
2022/01/08 11:01:44;;;;;;;263.52;174.82;;;;;;;22.09;42.19;100897.81;5125438;27;20031;-42
2022/01/08 11:04:15;;;;;;;266.10;174.02;;;;;;;22.13;42.17;100895.28;5125722;27;20531;-42
2022/01/08 11:06:56;;;;;;;257.17;171.68;;;;;;;22.12;42.23;100872.63;5125510;27;20031;-42
2022/01/08 11:09:25;;;;;;;274.10;177.00;;;;;;;22.01;42.33;100867.19;5090264;27;20027;-43
2022/01/08 11:11:55;;;;;;;268.10;175.23;;;;;;;22.06;42.15;100854.25;5089955;27;20064;-43
2022/01/08 11:17:17;;;;;;;291.23;186.35;;;;;;;22.08;42.37;100833.34;5113261;27;20085;-43
2022/01/08 11:19:49;;;;;;;260.50;176.07;;;;;;;22.01;42.52;100825.41;5125276;27;20027;-43
2022/01/08 11:22:22;;;;;;;259.50;173.43;;;;;;;21.99;42.45;100816.69;5107284;27;20796;-42
2022/01/08 11:25:11;;;;;;;267.83;177.32;;;;;;;21.86;42.78;100809.44;5125514;27;20034;-43
2022/01/08 11:28:05;;;;;;;271.42;179.20;;;;;;;21.87;42.48;100798.13;5125449;27;20062;-42
2022/01/08 11:30:37;;;;;;;258.77;164.35;;;;;;;21.87;42.45;100789.44;5118081;27;20046;-43
2022/01/08 11:33:13;;;;;;;253.55;165.30;;;;;;;21.93;42.19;100799.97;5124989;27;20074;-42